Time,TemperatureF,DewpointF,PressureIn,WindDirection,WindDirectionDegrees,WindSpeedMPH,WindSpeedGustMPH,Humidity,HourlyPrecipIn,Conditions,Clouds,dailyrainin,SoftwareType,DateUTC
2013-05-29 00:08:00,65.9,60.0,30.00,SSW,213,0.0,0.0,82,0.00,,,0.00,weatherlink.com 1.10,2013-05-29 05:08:00,
2013-05-29 00:24:00,65.6,61.0,30.00,SSW,213,0.0,0.0,84,0.00,,,0.00,weatherlink.com 1.10,2013-05-29 05:24:00,
2013-05-29 00:42:00,64.4,60.0,30.00,SSW,213,0.0,0.0,85,0.00,,,0.00,weatherlink.com 1.10,2013-05-29 05:42:00,
2013-05-29 00:58:00,63.8,60.0,30.00,SSW,213,0.0,0.0,87,0.00,,,0.00,weatherlink.com 1.10,2013-05-29 05:58:00,
2013-05-29 01:14:00,63.2,60.0,30.00,SSW,213,0.0,0.0,88,0.00,,,0.00,weatherlink.com 1.10,2013-05-29 06:14:00,
2013-05-29 01:30:00,63.9,60.0,29.99,SW,214,0.0,1.0,87,0.00,,,0.00,weatherlink.com 1.10,2013-05-29 06:30:00,
2013-05-29 01:47:00,63.8,60.0,29.99,SW,236,0.0,0.0,88,0.00,,,0.00,weatherlink.com 1.10,2013-05-29 06:47:00,
2013-05-29 02:03:00,64.2,60.0,29.99,SSW,202,0.0,1.0,87,0.00,,,0.00,weatherlink.com 1.10,2013-05-29 07:03:00,
2013-05-29 02:19:00,64.4,60.0,29.99,SSW,202,0.0,0.0,87,0.00,,,0.00,weatherlink.com 1.10,2013-05-29 07:19:00,
2013-05-29 02:35:00,64.4,61.0,29.99,SSW,202,0.0,0.0,88,0.00,,,0.00,weatherlink.com 1.10,2013-05-29 07:35:00,
2013-05-29 02:51:00,65.0,61.0,30.00,South,180,0.0,0.0,86,0.00,,,0.00,weatherlink.com 1.10,2013-05-29 07:51:00,
2013-05-29 03:07:00,65.1,61.0,30.00,SSW,211,0.0,1.0,86,0.00,,,0.00,weatherlink.com 1.10,2013-05-29 08:07:00,
2013-05-29 03:23:00,65.2,61.0,30.00,SW,227,1.0,1.0,87,0.00,,,0.00,weatherlink.com 1.10,2013-05-29 08:23:00,
2013-05-29 03:40:00,65.7,62.0,30.00,SSE,147,0.0,1.0,87,0.00,,,0.00,weatherlink.com 1.10,2013-05-29 08:40:00,
2013-05-29 03:56:00,65.6,62.0,30.00,South,173,0.0,1.0,87,0.00,,,0.00,weatherlink.com 1.10,2013-05-29 08:56:00,
2013-05-29 04:12:00,65.8,62.0,30.00,SW,214,0.0,2.0,87,0.00,,,0.00,weatherlink.com 1.10,2013-05-29 09:12:00,
2013-05-29 04:28:00,65.5,62.0,30.01,SSW,202,0.0,1.0,88,0.00,,,0.00,weatherlink.com 1.10,2013-05-29 09:28:00,
2013-05-29 04:44:00,64.7,62.0,30.02,SSW,202,0.0,0.0,90,0.00,,,0.00,weatherlink.com 1.10,2013-05-29 09:44:00,
2013-05-29 05:00:00,63.5,61.0,30.02,SSW,202,0.0,0.0,92,0.00,,,0.00,weatherlink.com 1.10,2013-05-29 10:00:00,
2013-05-29 05:17:00,62.6,61.0,30.03,SSW,202,0.0,0.0,93,0.00,,,0.00,weatherlink.com 1.10,2013-05-29 10:17:00,
2013-05-29 05:33:00,63.5,62.0,30.04,SSW,202,0.0,0.0,94,0.00,,,0.00,weatherlink.com 1.10,2013-05-29 10:33:00,
2013-05-29 05:49:00,63.3,62.0,30.05,SSW,202,0.0,0.0,94,0.00,,,0.00,weatherlink.com 1.10,2013-05-29 10:49:00,
2013-05-29 06:06:00,63.5,62.0,30.05,SSW,202,0.0,0.0,94,0.00,,,0.00,weatherlink.com 1.10,2013-05-29 11:06:00,
2013-05-29 06:23:00,63.9,62.0,30.06,SSW,202,0.0,0.0,94,0.00,,,0.00,weatherlink.com 1.10,2013-05-29 11:23:00,
2013-05-29 06:39:00,64.8,63.0,30.06,SSW,201,0.0,1.0,93,0.00,,,0.00,weatherlink.com 1.10,2013-05-29 11:39:00,
2013-05-29 06:55:00,67.8,64.0,30.06,SSW,207,2.0,4.0,88,0.00,,,0.00,weatherlink.com 1.10,2013-05-29 11:55:00,
2013-05-29 07:11:00,69.4,65.0,30.06,SW,222,0.0,4.0,85,0.00,,,0.00,weatherlink.com 1.10,2013-05-29 12:11:00,
2013-05-29 07:27:00,70.4,65.0,30.07,South,182,3.0,4.0,83,0.00,,,0.00,weatherlink.com 1.10,2013-05-29 12:27:00,
2013-05-29 07:45:00,71.9,66.0,30.07,SW,223,2.0,4.0,81,0.00,,,0.00,weatherlink.com 1.10,2013-05-29 12:45:00,
2013-05-29 08:01:00,73.5,66.0,30.07,South,180,2.0,7.0,78,0.00,,,0.00,weatherlink.com 1.10,2013-05-29 13:01:00,
2013-05-29 08:17:00,73.8,67.0,30.07,WSW,252,4.0,9.0,78,0.00,,,0.00,weatherlink.com 1.10,2013-05-29 13:17:00,
2013-05-29 08:33:00,75.0,66.0,30.07,SW,227,6.0,10.0,74,0.00,,,0.00,weatherlink.com 1.10,2013-05-29 13:33:00,
2013-05-29 08:49:00,76.4,67.0,30.08,SE,128,2.0,6.0,72,0.00,,,0.00,weatherlink.com 1.10,2013-05-29 13:49:00,
2013-05-29 09:05:00,78.0,67.0,30.07,SW,232,2.0,7.0,70,0.00,,,0.00,weatherlink.com 1.10,2013-05-29 14:05:00,
2013-05-29 09:21:00,79.1,67.0,30.07,SSE,154,4.0,8.0,67,0.00,,,0.00,weatherlink.com 1.10,2013-05-29 14:21:00,
2013-05-29 09:37:00,80.2,68.0,30.06,WSW,248,1.0,7.0,67,0.00,,,0.00,weatherlink.com 1.10,2013-05-29 14:37:00,
2013-05-29 09:53:00,81.3,69.0,30.06,West,281,2.0,8.0,66,0.00,,,0.00,weatherlink.com 1.10,2013-05-29 14:53:00,
2013-05-29 10:09:00,81.4,68.0,30.06,SW,221,2.0,9.0,64,0.00,,,0.00,weatherlink.com 1.10,2013-05-29 15:09:00,
2013-05-29 10:26:00,82.0,68.0,30.06,SSW,211,7.0,10.0,63,0.00,,,0.00,weatherlink.com 1.10,2013-05-29 15:26:00,
2013-05-29 10:43:00,82.5,68.0,30.06,SSW,213,2.0,8.0,62,0.00,,,0.00,weatherlink.com 1.10,2013-05-29 15:43:00,
2013-05-29 10:59:00,83.5,70.0,30.05,SW,229,2.0,10.0,63,0.00,,,0.00,weatherlink.com 1.10,2013-05-29 15:59:00,
2013-05-29 11:15:00,83.8,68.0,30.05,SW,221,5.0,9.0,60,0.00,,,0.00,weatherlink.com 1.10,2013-05-29 16:15:00,
2013-05-29 11:31:00,84.0,68.0,30.05,South,173,5.0,9.0,58,0.00,,,0.00,weatherlink.com 1.10,2013-05-29 16:31:00,
2013-05-29 11:47:00,84.7,67.0,30.04,WSW,241,8.0,13.0,56,0.00,,,0.00,weatherlink.com 1.10,2013-05-29 16:47:00,
2013-05-29 12:03:00,84.7,67.0,30.03,SW,218,9.0,15.0,55,0.00,,,0.00,weatherlink.com 1.10,2013-05-29 17:03:00,
2013-05-29 12:21:00,84.3,67.0,30.03,WSW,238,2.0,10.0,56,0.00,,,0.00,weatherlink.com 1.10,2013-05-29 17:21:00,
2013-05-29 12:37:00,85.3,68.0,30.03,WSW,237,3.0,16.0,56,0.00,,,0.00,weatherlink.com 1.10,2013-05-29 17:37:00,
2013-05-29 12:53:00,85.4,68.0,30.03,SW,219,5.0,11.0,56,0.00,,,0.00,weatherlink.com 1.10,2013-05-29 17:53:00,
2013-05-29 13:09:00,85.1,68.0,30.02,WNW,298,2.0,10.0,57,0.00,,,0.00,weatherlink.com 1.10,2013-05-29 18:09:00,
2013-05-29 13:25:00,86.5,69.0,30.02,SW,219,2.0,9.0,56,0.00,,,0.00,weatherlink.com 1.10,2013-05-29 18:25:00,
2013-05-29 13:42:00,86.5,68.0,30.02,SW,217,7.0,11.0,55,0.00,,,0.00,weatherlink.com 1.10,2013-05-29 18:42:00,
2013-05-29 13:58:00,86.6,68.0,30.01,SSW,198,4.0,7.0,54,0.00,,,0.00,weatherlink.com 1.10,2013-05-29 18:58:00,
2013-05-29 14:14:00,86.6,67.0,30.01,SSW,194,10.0,10.0,53,0.00,,,0.00,weatherlink.com 1.10,2013-05-29 19:14:00,
2013-05-29 14:30:00,86.1,68.0,30.01,WSW,246,5.0,15.0,55,0.00,,,0.00,weatherlink.com 1.10,2013-05-29 19:30:00,
2013-05-29 14:46:00,86.0,68.0,30.00,SW,229,2.0,12.0,56,0.00,,,0.00,weatherlink.com 1.10,2013-05-29 19:46:00,
2013-05-29 15:03:00,87.3,66.0,30.00,SSW,202,5.0,13.0,50,0.00,,,0.00,weatherlink.com 1.10,2013-05-29 20:03:00,
2013-05-29 15:19:00,86.3,62.0,30.00,SW,227,9.0,15.0,45,0.00,,,0.00,weatherlink.com 1.10,2013-05-29 20:19:00,
2013-05-29 15:35:00,87.2,65.0,30.00,SSW,202,7.0,10.0,47,0.00,,,0.00,weatherlink.com 1.10,2013-05-29 20:35:00,
2013-05-29 15:51:00,87.2,64.0,29.99,WSW,237,3.0,10.0,46,0.00,,,0.00,weatherlink.com 1.10,2013-05-29 20:51:00,
2013-05-29 16:07:00,87.6,64.0,29.98,SSW,194,3.0,10.0,46,0.00,,,0.00,weatherlink.com 1.10,2013-05-29 21:07:00,
2013-05-29 16:23:00,87.2,65.0,29.98,WSW,245,4.0,9.0,48,0.00,,,0.00,weatherlink.com 1.10,2013-05-29 21:23:00,
2013-05-29 16:40:00,87.4,65.0,29.98,SW,222,2.0,8.0,48,0.00,,,0.00,weatherlink.com 1.10,2013-05-29 21:40:00,
2013-05-29 16:56:00,87.6,66.0,29.97,SSE,152,2.0,7.0,49,0.00,,,0.00,weatherlink.com 1.10,2013-05-29 21:56:00,
2013-05-29 17:12:00,87.2,67.0,29.98,SSW,199,7.0,10.0,51,0.00,,,0.00,weatherlink.com 1.10,2013-05-29 22:12:00,
2013-05-29 17:29:00,86.5,67.0,29.97,South,178,3.0,7.0,53,0.00,,,0.00,weatherlink.com 1.10,2013-05-29 22:29:00,
2013-05-29 17:45:00,85.3,68.0,29.97,SSW,207,3.0,9.0,57,0.00,,,0.00,weatherlink.com 1.10,2013-05-29 22:45:00,
2013-05-29 18:01:00,84.1,69.0,29.97,SW,219,3.0,10.0,60,0.00,,,0.00,weatherlink.com 1.10,2013-05-29 23:01:00,
2013-05-29 18:17:00,84.6,70.0,29.97,SSW,207,0.0,7.0,61,0.00,,,0.00,weatherlink.com 1.10,2013-05-29 23:17:00,
2013-05-29 18:34:00,84.6,70.0,29.96,SSW,213,2.0,7.0,61,0.00,,,0.00,weatherlink.com 1.10,2013-05-29 23:34:00,
2013-05-29 18:50:00,83.3,69.0,29.96,SSW,207,2.0,5.0,62,0.00,,,0.00,weatherlink.com 1.10,2013-05-29 23:50:00,
2013-05-29 19:06:00,82.6,68.0,29.96,South,190,0.0,6.0,62,0.00,,,0.00,weatherlink.com 1.10,2013-05-30 00:06:00,
2013-05-29 19:22:00,81.8,69.0,29.96,SSE,161,1.0,4.0,65,0.00,,,0.00,weatherlink.com 1.10,2013-05-30 00:22:00,
2013-05-29 19:38:00,80.7,68.0,29.96,South,178,0.0,4.0,66,0.00,,,0.00,weatherlink.com 1.10,2013-05-30 00:38:00,
2013-05-29 19:54:00,79.9,68.0,29.96,SSW,197,0.0,3.0,67,0.00,,,0.00,weatherlink.com 1.10,2013-05-30 00:54:00,
2013-05-29 20:10:00,78.9,68.0,29.96,SSW,205,0.0,2.0,69,0.00,,,0.00,weatherlink.com 1.10,2013-05-30 01:10:00,
2013-05-29 20:26:00,78.1,68.0,29.95,SSE,154,0.0,3.0,70,0.00,,,0.00,weatherlink.com 1.10,2013-05-30 01:26:00,
2013-05-29 20:43:00,77.4,67.0,29.95,SW,217,0.0,3.0,70,0.00,,,0.00,weatherlink.com 1.10,2013-05-30 01:43:00,
2013-05-29 20:59:00,77.1,67.0,29.95,SSW,198,0.0,2.0,71,0.00,,,0.00,weatherlink.com 1.10,2013-05-30 01:59:00,
2013-05-29 21:15:00,76.6,67.0,29.95,SSW,213,1.0,3.0,72,0.00,,,0.00,weatherlink.com 1.10,2013-05-30 02:15:00,
2013-05-29 21:33:00,76.0,67.0,29.96,South,169,0.0,3.0,73,0.00,,,0.00,weatherlink.com 1.10,2013-05-30 02:33:00,
2013-05-29 21:49:00,75.6,67.0,29.96,SSE,161,1.0,2.0,74,0.00,,,0.00,weatherlink.com 1.10,2013-05-30 02:49:00,
2013-05-29 22:05:00,75.3,66.0,29.96,South,171,0.0,2.0,74,0.00,,,0.00,weatherlink.com 1.10,2013-05-30 03:05:00,
2013-05-29 22:22:00,75.7,66.0,29.97,South,169,1.0,4.0,72,0.00,,,0.00,weatherlink.com 1.10,2013-05-30 03:22:00,
2013-05-29 22:38:00,75.7,66.0,29.96,SSW,192,2.0,4.0,72,0.00,,,0.00,weatherlink.com 1.10,2013-05-30 03:38:00,
2013-05-29 22:54:00,75.8,66.0,29.96,SW,221,0.0,6.0,71,0.00,,,0.00,weatherlink.com 1.10,2013-05-30 03:54:00,
2013-05-29 23:10:00,75.8,66.0,29.97,South,183,2.0,4.0,71,0.00,,,0.00,weatherlink.com 1.10,2013-05-30 04:10:00,
2013-05-29 23:26:00,75.7,66.0,29.98,South,182,1.0,6.0,71,0.00,,,0.00,weatherlink.com 1.10,2013-05-30 04:26:00,
2013-05-29 23:42:00,75.8,66.0,29.98,SSE,160,6.0,6.0,71,0.00,,,0.00,weatherlink.com 1.10,2013-05-30 04:42:00,
2013-05-29 23:58:00,75.8,66.0,29.99,SSE,161,1.0,5.0,71,0.00,,,0.00,weatherlink.com 1.10,2013-05-30 04:58:00,